.
WxDataArchive / Data Records for 2012-09-01
2012-08-31 September 2012 2012-09-02

Data Records for Saturday, 01 September 2012

Time	Temp	Chill	HIndex	Humid	Dewpt	 Wind 	HiWind	WindDir	Rain 	Barom 
-----	----	-----	------	-----	-----	------	------	-------	-----	----- 
00:00	77.0	77.0	78.5	81	70.7	0	0	---	0.00	30.029 
00:05	76.8	76.8	78.2	81	70.5	0	0	---	0.00	30.029 
00:10	76.8	76.8	78.2	81	70.5	0	0	---	0.00	30.029 
00:15	76.8	76.8	78.2	81	70.5	0	0	---	0.00	30.035 
00:20	76.8	76.8	78.2	81	70.5	0	0	---	0.00	30.035 
00:25	76.8	76.8	78.2	82	70.9	0	0	---	0.00	30.035 
00:30	76.7	76.7	78.0	82	70.8	0	0	---	0.00	30.041 
00:35	76.7	76.7	78.0	82	70.8	0	0	---	0.00	30.041 
00:40	76.8	76.8	78.2	82	70.9	0	0	---	0.00	30.041 
00:45	76.8	76.8	78.2	82	70.9	0	1	248	0.00	30.043 
00:50	76.8	76.8	78.2	82	70.9	0	0	---	0.00	30.043 
00:55	76.8	76.8	78.2	82	70.9	0	0	---	0.00	30.043 
01:00	76.8	76.8	78.2	82	70.9	0	0	---	0.00	30.046 
01:05	76.8	76.8	78.2	82	70.9	0	0	---	0.00	30.046 
01:10	76.8	76.8	78.2	82	70.9	0	0	---	0.00	30.046 
01:15	76.7	76.7	78.0	82	70.8	0	0	---	0.00	30.046 
01:20	76.7	76.7	78.0	82	70.8	0	0	---	0.00	30.046 
01:25	76.7	76.7	78.0	82	70.8	0	0	---	0.00	30.046 
01:30	76.5	76.5	77.7	82	70.6	0	0	---	0.00	30.050 
01:35	76.5	76.5	77.6	83	70.9	0	0	---	0.00	30.050 
01:40	76.5	76.5	77.6	83	70.9	0	0	---	0.00	30.050 
01:45	76.3	76.3	77.2	83	70.7	0	0	---	0.00	30.050 
01:50	76.3	76.3	77.2	83	70.7	0	0	---	0.00	30.050 
01:55	76.3	76.3	77.2	84	71.1	0	0	---	0.00	30.050 
02:00	76.1	76.1	76.8	84	70.9	0	0	---	0.00	30.046 
02:05	76.1	76.1	76.8	84	70.9	0	0	---	0.00	30.046 
02:10	76.0	76.0	76.7	84	70.8	0	0	---	0.00	30.046 
02:15	75.8	75.8	76.3	84	70.6	0	0	---	0.00	30.045 
02:20	75.8	75.8	76.3	84	70.6	0	0	---	0.00	30.045 
02:25	75.6	75.6	76.0	84	70.4	0	0	---	0.00	30.045 
02:30	75.6	75.6	75.9	85	70.8	0	0	---	0.00	30.044 
02:35	75.4	75.4	75.5	85	70.6	0	0	---	0.00	30.044 
02:40	75.4	75.4	75.5	85	70.6	0	0	---	0.00	30.044 
02:45	75.3	75.3	75.2	86	70.8	0	0	---	0.00	30.043 
02:50	75.3	75.3	75.2	86	70.8	0	0	---	0.00	30.043 
02:55	75.3	75.3	75.2	86	70.8	0	0	---	0.00	30.043 
03:00	75.3	75.3	75.2	86	70.8	0	0	---	0.00	30.043 
03:05	75.3	75.3	75.2	86	70.8	0	0	---	0.00	30.043 
03:10	75.1	75.1	74.9	86	70.6	0	0	---	0.00	30.043 
03:15	75.1	75.1	74.9	86	70.6	0	0	---	0.00	30.040 
03:20	75.1	75.1	74.9	86	70.6	0	0	---	0.00	30.040 
03:25	75.1	75.1	74.9	86	70.6	0	0	---	0.00	30.040 
03:30	75.1	75.1	74.9	86	70.6	0	0	---	0.00	30.038 
03:35	75.1	75.1	74.9	86	70.6	0	0	---	0.00	30.038 
03:40	75.1	75.1	74.9	86	70.6	0	0	---	0.00	30.038 
03:45	75.1	75.1	74.9	86	70.6	0	0	---	0.00	30.041 
03:50	75.1	75.1	74.7	87	71.0	0	0	---	0.00	30.041 
03:55	75.1	75.1	74.7	87	71.0	0	0	---	0.00	30.041 
04:00	75.1	75.1	74.7	87	71.0	0	0	---	0.00	30.042 
04:05	75.1	75.1	74.7	87	71.0	0	0	---	0.00	30.042 
04:10	75.1	75.1	74.7	87	71.0	0	0	---	0.00	30.042 
04:15	75.1	75.1	74.7	87	71.0	0	0	---	0.00	30.042 
04:20	75.1	75.1	74.7	87	71.0	0	0	---	0.00	30.042 
04:25	75.1	75.1	74.7	87	71.0	0	0	---	0.00	30.042 
04:30	75.3	75.3	75.1	87	71.2	0	1	248	0.01	30.047 
04:35	75.3	75.3	75.0	88	71.5	0	1	248	0.00	30.047 
04:40	75.1	75.1	74.6	88	71.3	0	1	248	0.01	30.047 
04:45	75.1	75.1	74.6	88	71.3	0	1	248	0.12	30.045 
04:50	74.7	74.7	74.7	89	71.2	0	2	248	0.08	30.045 
04:55	74.6	74.6	74.6	90	71.5	0	0	---	0.00	30.045 
05:00	74.4	74.4	74.4	91	71.6	0	0	---	0.00	30.032 
05:05	74.4	74.4	74.4	91	71.6	0	0	---	0.00	30.032 
05:10	74.2	74.2	74.2	91	71.4	0	0	---	0.00	30.032 
05:15	74.0	74.0	74.0	92	71.5	0	0	---	0.00	30.033 
05:20	74.0	74.0	74.0	92	71.5	0	0	---	0.00	30.033 
05:25	73.9	73.9	73.9	92	71.4	0	0	---	0.00	30.033 
05:30	73.9	73.9	73.9	92	71.4	0	0	---	0.00	30.036 
05:35	73.7	73.7	73.7	92	71.2	0	0	---	0.00	30.036 
05:40	73.7	73.7	73.7	92	71.2	0	0	---	0.00	30.036 
05:45	73.7	73.7	73.7	92	71.2	0	0	---	0.00	30.033 
05:50	73.5	73.5	73.5	92	71.0	0	0	---	0.00	30.033 
05:55	73.5	73.5	73.5	93	71.3	0	0	---	0.00	30.033 
06:00	73.5	73.5	73.5	93	71.3	0	0	---	0.00	30.032 
06:05	73.5	73.5	73.5	93	71.3	0	0	---	0.00	30.032 
06:10	73.5	73.5	73.5	93	71.3	0	0	---	0.00	30.032 
06:15	73.5	73.5	73.5	93	71.3	0	0	---	0.00	30.033 
06:20	73.3	73.3	73.3	93	71.1	0	0	---	0.00	30.033 
06:25	73.3	73.3	73.3	93	71.1	0	0	---	0.00	30.033 
06:30	73.3	73.3	73.3	93	71.1	0	1	248	0.00	30.034 
06:35	73.2	73.2	73.2	94	71.4	0	0	---	0.00	30.034 
06:40	73.2	73.2	73.2	94	71.4	0	1	248	0.00	30.034 
06:45	73.2	73.2	73.2	94	71.4	0	1	248	0.00	30.034 
06:50	73.2	73.2	73.2	94	71.4	0	1	248	0.00	30.034 
06:55	73.2	73.2	73.2	94	71.4	0	1	248	0.00	30.034 
07:00	73.0	73.0	73.0	94	71.2	0	0	---	0.00	30.034 
07:05	73.0	73.0	73.0	94	71.2	0	0	---	0.00	30.034 
07:10	73.0	73.0	73.0	94	71.2	0	1	248	0.00	30.034 
07:15	73.0	73.0	73.0	94	71.2	0	1	248	0.00	30.036 
07:20	73.0	73.0	73.0	94	71.2	0	1	248	0.00	30.036 
07:25	73.0	73.0	73.0	94	71.2	0	1	248	0.00	30.036 
07:30	73.0	73.0	73.0	94	71.2	0	1	248	0.00	30.038 
07:35	73.0	73.0	73.0	94	71.2	0	1	248	0.00	30.038 
07:40	73.0	73.0	73.0	94	71.2	0	2	248	0.00	30.038 
07:45	73.0	73.0	73.0	94	71.2	0	0	---	0.00	30.041 
07:50	73.0	73.0	73.0	94	71.2	0	1	248	0.00	30.041 
07:55	73.0	73.0	73.0	94	71.2	0	0	---	0.00	30.041 
08:00	73.0	73.0	73.0	94	71.2	0	0	---	0.00	30.047 
08:05	73.0	73.0	73.0	94	71.2	0	1	248	0.00	30.047 
08:10	73.0	73.0	73.0	94	71.2	0	1	248	0.00	30.047 
08:15	73.0	73.0	73.0	94	71.2	0	0	---	0.00	30.048 
08:20	73.0	73.0	73.0	94	71.2	0	1	248	0.00	30.048 
08:25	73.2	73.2	73.2	94	71.4	0	0	---	0.00	30.048 
08:30	73.2	73.2	73.2	94	71.4	0	1	248	0.00	30.046 
08:35	73.2	73.2	73.2	94	71.4	0	0	---	0.00	30.046 
08:40	73.2	73.2	73.2	94	71.4	0	0	---	0.00	30.046 
08:45	73.2	73.2	73.2	94	71.4	0	0	---	0.00	30.052 
08:50	73.3	73.3	73.3	94	71.5	0	0	---	0.00	30.052 
08:55	73.5	73.5	73.5	94	71.7	0	1	248	0.00	30.052 
09:00	73.5	73.5	73.5	94	71.7	0	1	248	0.00	30.051 
09:05	73.7	73.7	73.7	94	71.9	0	0	---	0.00	30.051 
09:10	73.7	73.7	73.7	94	71.9	0	1	248	0.00	30.051 
09:15	73.7	73.7	73.7	94	71.9	0	1	248	0.00	30.055 
09:20	73.9	73.9	73.9	94	72.1	0	1	248	0.00	30.055 
09:25	74.0	74.0	74.0	94	72.2	0	2	248	0.00	30.055 
09:30	74.2	74.2	74.2	94	72.4	0	2	248	0.00	30.055 
09:35	74.2	74.2	74.2	94	72.4	1	4	90	0.00	30.055 
09:40	74.2	74.2	74.2	94	72.4	2	4	90	0.00	30.055 
09:45	74.2	74.2	74.2	93	72.0	1	3	90	0.00	30.049 
09:50	74.4	74.4	74.4	93	72.2	1	3	90	0.00	30.049 
09:55	74.4	74.4	74.4	93	72.2	0	2	90	0.00	30.049 
10:00	74.6	74.6	74.6	93	72.4	0	2	90	0.00	30.048 
10:05	74.7	74.7	74.7	93	72.5	1	3	90	0.00	30.048 
10:10	74.9	74.9	74.9	93	72.7	0	1	90	0.00	30.048 
10:15	74.9	74.9	74.9	93	72.7	0	2	90	0.00	30.050 
10:20	75.1	75.1	73.9	92	72.6	1	3	90	0.00	30.050 
10:25	75.3	75.3	74.3	92	72.8	0	3	90	0.00	30.050 
10:30	75.3	75.3	74.3	92	72.8	1	4	90	0.00	30.050 
10:35	75.3	75.3	74.3	92	72.8	0	2	90	0.00	30.050 
10:40	75.3	75.3	74.3	92	72.8	1	4	90	0.00	30.050 
10:45	75.3	75.3	74.3	92	72.8	2	5	90	0.00	30.051 
10:50	75.3	75.3	74.3	92	72.8	1	3	90	0.00	30.051 
10:55	75.1	75.1	74.1	91	72.3	1	4	90	0.00	30.051 
11:00	75.1	75.1	74.1	91	72.3	1	3	90	0.00	30.052 
11:05	75.1	75.1	74.1	91	72.3	1	3	90	0.00	30.052 
11:10	75.3	75.3	74.5	91	72.5	0	1	90	0.00	30.052 
11:15	75.4	75.4	74.7	91	72.6	1	3	90	0.00	30.052 
11:20	75.4	75.4	74.7	91	72.6	1	3	90	0.00	30.052 
11:25	75.6	75.6	75.1	91	72.8	1	4	90	0.00	30.052 
11:30	75.8	75.8	75.6	90	72.6	1	3	90	0.00	30.052 
11:35	76.1	76.1	76.3	90	72.9	0	2	90	0.00	30.052 
11:40	76.1	76.1	76.3	90	72.9	1	4	90	0.00	30.052 
11:45	76.3	76.3	76.8	89	72.8	2	5	90	0.00	30.049 
11:50	76.5	76.5	77.2	89	73.0	1	3	68	0.00	30.049 
11:55	76.8	76.8	77.8	89	73.3	1	3	68	0.00	30.049 
12:00	77.0	77.0	78.3	88	73.2	1	3	68	0.00	30.044 
12:05	77.2	77.2	78.7	88	73.4	1	4	68	0.00	30.044 
12:10	77.2	77.2	78.7	88	73.4	1	4	90	0.00	30.044 
12:15	77.4	77.4	79.1	88	73.6	1	3	90	0.00	30.046 
12:20	77.4	77.4	79.1	87	73.2	1	3	90	0.00	30.046 
12:25	77.4	77.4	79.1	87	73.2	1	3	90	0.00	30.046 
12:30	77.4	77.4	79.1	87	73.2	1	5	68	0.00	30.046 
12:35	77.6	77.6	79.6	87	73.4	1	4	68	0.00	30.046 
12:40	77.7	77.7	79.8	87	73.5	1	3	68	0.00	30.046 
12:45	77.7	77.7	79.8	87	73.5	1	4	68	0.00	30.046 
12:50	77.9	77.9	80.2	87	73.7	1	3	68	0.00	30.046 
12:55	77.9	77.9	80.2	86	73.4	1	4	68	0.00	30.046 
13:00	77.9	77.9	80.2	86	73.4	2	5	68	0.00	30.045 
13:05	78.1	78.1	80.6	86	73.6	1	3	68	0.00	30.045 
13:10	78.1	78.1	80.6	86	73.6	1	4	68	0.00	30.045 
13:15	78.3	78.3	81.1	86	73.8	2	5	68	0.00	30.040 
13:20	78.3	78.3	81.1	86	73.8	2	6	90	0.00	30.040 
13:25	78.3	78.3	81.1	86	73.8	1	5	90	0.00	30.040 
13:30	78.3	78.3	81.1	86	73.8	0	3	112	0.00	30.041 
13:35	78.3	78.3	81.1	86	73.8	2	5	90	0.00	30.041 
13:40	78.1	78.1	80.6	86	73.6	1	3	90	0.00	30.041 
13:45	78.1	78.1	80.7	87	73.9	1	2	90	0.00	30.037 
13:50	78.3	78.3	81.1	87	74.1	0	2	90	0.00	30.037 
13:55	78.3	78.3	81.2	88	74.4	1	3	90	0.00	30.037 
14:00	78.5	78.5	81.6	88	74.6	0	2	90	0.00	30.035 
14:05	78.5	78.5	81.6	88	74.6	2	4	90	0.00	30.035 
14:10	78.5	78.5	81.6	88	74.6	1	5	90	0.00	30.035 
14:15	78.6	78.6	81.9	88	74.7	1	4	90	0.00	30.032 
14:20	78.6	78.6	81.8	87	74.4	1	3	90	0.00	30.032 
14:25	78.6	78.6	81.8	87	74.4	1	4	90	0.00	30.032 
14:30	78.8	78.8	82.3	87	74.6	1	3	90	0.00	30.029 
14:35	79.0	79.0	82.7	86	74.4	1	3	90	0.00	30.029 
14:40	79.0	79.0	82.7	86	74.4	2	4	90	0.00	30.029 
14:45	79.0	79.0	82.7	87	74.8	1	3	90	0.00	30.021 
14:50	79.0	79.0	82.7	87	74.8	1	4	90	0.00	30.021 
14:55	79.0	79.0	82.7	87	74.8	1	4	90	0.00	30.021 
15:00	79.0	79.0	82.7	87	74.8	0	1	90	0.00	30.020 
15:05	79.2	79.2	83.2	87	75.0	0	2	90	0.00	30.020 
15:10	79.4	79.4	83.7	87	75.2	0	1	90	0.00	30.020 
15:15	79.2	79.2	83.0	85	74.3	0	2	90	0.00	30.018 
15:20	79.2	79.2	82.9	84	73.9	1	3	68	0.00	30.018 
15:25	79.4	79.4	83.4	84	74.1	0	1	68	0.00	30.018 
15:30	79.0	79.0	82.5	84	73.7	0	1	68	0.00	30.008 
15:35	78.8	78.8	82.0	83	73.2	0	1	68	0.00	30.008 
15:40	78.6	78.6	81.6	83	73.0	0	0	---	0.01	30.008 
15:45	78.5	78.5	81.4	84	73.2	0	1	68	0.00	30.001 
15:50	78.3	78.3	81.0	84	73.1	0	0	---	0.00	30.001 
15:55	78.3	78.3	81.0	84	73.1	0	0	---	0.00	30.001 
16:00	78.5	78.5	81.5	85	73.6	0	0	---	0.00	29.989 
16:05	78.3	78.3	81.0	85	73.4	0	0	---	0.00	29.989 
16:10	78.3	78.3	81.1	86	73.8	0	0	---	0.01	29.989 
16:15	78.1	78.1	80.6	86	73.6	0	0	---	0.00	29.987 
16:20	77.9	77.9	80.2	86	73.4	0	0	---	0.00	29.987 
16:25	77.7	77.7	79.8	87	73.5	0	0	---	0.00	29.987 
16:30	77.7	77.7	79.8	88	73.8	0	0	---	0.00	29.985 
16:35	77.7	77.7	79.8	88	73.8	0	0	---	0.01	29.985 
16:40	77.4	77.4	79.1	88	73.6	0	0	---	0.00	29.985 
16:45	77.4	77.4	79.1	89	73.9	0	0	---	0.00	29.985 
16:50	77.2	77.2	78.7	89	73.7	0	0	---	0.00	29.985 
16:55	77.0	77.0	78.2	89	73.5	0	0	---	0.00	29.985 
17:00	77.0	77.0	78.2	90	73.8	0	0	---	0.00	29.983 
17:05	77.0	77.0	78.2	90	73.8	0	0	---	0.00	29.983 
17:10	77.0	77.0	78.2	90	73.8	0	0	---	0.00	29.983 
17:15	77.0	77.0	78.2	90	73.8	0	0	---	0.00	29.987 
17:20	77.0	77.0	78.1	91	74.2	0	0	---	0.00	29.987 
17:25	77.0	77.0	78.2	90	73.8	0	0	---	0.00	29.987 
17:30	76.8	76.8	77.7	90	73.6	0	1	68	0.00	29.978 
17:35	76.8	76.8	77.7	90	73.6	0	0	---	0.00	29.978 
17:40	76.8	76.8	77.7	90	73.6	0	1	68	0.00	29.978 
17:45	76.8	76.8	77.7	90	73.6	0	1	68	0.00	29.975 
17:50	76.8	76.8	77.8	89	73.3	0	1	68	0.00	29.975 
17:55	76.8	76.8	77.8	89	73.3	0	1	68	0.00	29.975 
18:00	76.7	76.7	77.6	89	73.2	0	1	68	0.00	29.975 
18:05	76.7	76.7	77.6	89	73.2	0	0	---	0.00	29.975 
18:10	76.7	76.7	77.6	89	73.2	0	0	---	0.00	29.975 
18:15	76.7	76.7	77.6	89	73.2	0	0	---	0.00	29.980 
18:20	76.7	76.7	77.6	89	73.2	0	0	---	0.00	29.980 
18:25	76.8	76.8	77.8	89	73.3	0	0	---	0.00	29.980 
18:30	76.8	76.8	77.7	90	73.6	0	0	---	0.00	29.986 
18:35	76.7	76.7	77.5	90	73.5	0	0	---	0.00	29.986 
18:40	76.7	76.7	77.5	90	73.5	0	0	---	0.01	29.986 
18:45	76.7	76.7	77.5	90	73.5	0	0	---	0.00	29.985 
18:50	76.7	76.7	77.5	90	73.5	0	0	---	0.00	29.985 
18:55	76.7	76.7	77.5	90	73.5	0	0	---	0.00	29.985 
19:00	76.7	76.7	77.5	91	73.9	0	0	---	0.00	29.977 
19:05	76.7	76.7	77.5	91	73.9	0	0	---	0.00	29.977 
19:10	76.7	76.7	77.5	91	73.9	0	0	---	0.00	29.977 
19:15	76.5	76.5	77.0	91	73.7	0	1	68	0.00	29.974 
19:20	76.5	76.5	77.0	91	73.7	0	1	68	0.00	29.974 
19:25	76.5	76.5	76.9	92	74.0	0	0	---	0.00	29.974 
19:30	76.3	76.3	76.5	92	73.8	0	1	68	0.00	29.975 
19:35	76.3	76.3	76.5	92	73.8	0	1	68	0.00	29.975 
19:40	76.3	76.3	76.5	92	73.8	0	1	68	0.00	29.975 
19:45	76.1	76.1	76.0	92	73.6	0	1	68	0.00	29.972 
19:50	76.3	76.3	76.5	92	73.8	0	2	68	0.00	29.972 
19:55	76.3	76.3	76.5	92	73.8	0	2	68	0.00	29.972 
20:00	76.3	76.3	76.5	92	73.8	0	1	68	0.00	29.973 
20:05	76.3	76.3	76.4	93	74.1	0	1	68	0.00	29.973 
20:10	76.3	76.3	76.4	93	74.1	0	1	68	0.00	29.973 
20:15	76.3	76.3	76.4	93	74.1	0	2	68	0.00	29.971 
20:20	76.3	76.3	76.4	93	74.1	0	3	68	0.00	29.971 
20:25	76.1	76.1	75.9	93	73.9	0	1	68	0.00	29.971 
20:30	76.0	76.0	75.7	93	73.8	0	0	---	0.00	29.971 
20:35	76.0	76.0	75.7	93	73.8	0	1	68	0.00	29.971 
20:40	75.8	75.8	75.3	93	73.6	0	1	68	0.00	29.971 
20:45	75.8	75.8	75.3	93	73.6	1	3	68	0.00	29.973 
20:50	75.6	75.6	74.8	93	73.4	0	1	68	0.00	29.973 
20:55	75.6	75.6	74.7	94	73.7	0	2	68	0.00	29.973 
21:00	75.6	75.6	74.7	94	73.7	0	1	68	0.00	29.975 
21:05	75.6	75.6	74.7	94	73.7	0	2	68	0.00	29.975 
21:10	75.4	75.4	74.2	94	73.5	0	2	68	0.00	29.975 
21:15	75.4	75.4	74.2	94	73.5	1	3	68	0.00	29.976 
21:20	75.3	75.3	74.0	94	73.4	1	3	68	0.00	29.976 
21:25	75.3	75.3	74.0	94	73.4	1	3	68	0.00	29.976 
21:30	75.1	75.1	73.6	94	73.2	1	4	68	0.00	29.982 
21:35	75.1	75.1	73.6	94	73.2	1	3	68	0.00	29.982 
21:40	75.1	75.1	73.6	94	73.2	2	5	90	0.00	29.982 
21:45	74.9	74.9	74.9	94	73.0	1	3	90	0.00	29.980 
21:50	74.9	74.9	74.9	94	73.0	2	4	90	0.00	29.980 
21:55	74.9	74.9	74.9	94	73.0	2	4	90	0.00	29.980 
22:00	74.9	74.9	74.9	94	73.0	2	4	90	0.00	29.976 
22:05	74.9	74.9	74.9	94	73.0	2	4	90	0.00	29.976 
22:10	74.7	74.7	74.7	94	72.9	1	4	90	0.00	29.976 
22:15	74.7	74.7	74.7	94	72.9	2	4	90	0.00	29.977 
22:20	74.7	74.7	74.7	94	72.9	1	3	90	0.00	29.977 
22:25	74.6	74.6	74.6	94	72.8	2	6	90	0.00	29.977 
22:30	74.6	74.6	74.6	94	72.8	2	6	90	0.00	29.976 
22:35	74.4	74.4	74.4	94	72.6	2	6	90	0.00	29.976 
22:40	74.4	74.4	74.4	94	72.6	2	5	68	0.00	29.976 
22:45	74.2	74.2	74.2	94	72.4	2	5	90	0.00	29.979 
22:50	74.2	74.2	74.2	94	72.4	2	7	90	0.00	29.979 
22:55	74.0	74.0	74.0	94	72.2	2	6	68	0.00	29.979 
23:00	73.9	73.9	73.9	94	72.1	2	6	90	0.00	29.980 
23:05	73.7	73.7	73.7	93	71.5	2	6	90	0.00	29.980 
23:10	73.5	73.5	73.5	93	71.3	2	6	90	0.00	29.980 
23:15	73.3	73.3	73.3	93	71.1	3	7	112	0.00	29.983 
23:20	73.3	73.3	73.3	93	71.1	1	3	90	0.00	29.983 
23:25	73.2	73.2	73.2	93	71.0	2	5	90	0.00	29.983 
23:30	73.0	73.0	73.0	93	70.8	1	4	90	0.00	29.982 
23:35	72.8	72.8	72.8	93	70.7	2	4	90	0.00	29.982 
23:40	72.8	72.8	72.8	93	70.7	2	5	90	0.00	29.982 
23:45	72.7	72.7	72.7	93	70.6	1	4	90	0.00	29.983 
23:50	72.7	72.7	72.7	93	70.6	2	5	90	0.00	29.983 
23:55	72.7	72.7	72.7	93	70.6	1	3	68	0.00	29.983 

CoCoRaHS
IN-AL-39
A2 Web Hosting
Creative Commons License
GoDaddy
search engine by freefind advanced

loaded 2018-11-17 18:33:04 • last modified 2010-11-18 10:43:29
Privacy PolicyDisclaimer
• wx.awcolley.com is powered by PmWiki v.2002016 •
• all content (unless otherwise noted) © 2018 A W Colley